Busy Bee — BUSYB — position and weather

sailwx.info

Track history (hours):
 
Tides and Currents Weather Stations Pressure Air Temp Water Temp Dewpoint Dewpoint Depression Visibility Wind Speed Wind Dir Waves Ship Positions

Busy Bee

Last reported at 2016-Jun-26 09:32 UTC. Time now 2016-Jun-28 09:44 UTC.
Position N 34°41' E 135°18'.

Length 15 m.

Type: Sailing vessel. MMSI: 431002814.

Date/timePositionNaut miles runAvg speedWind from/ knotsBaromVisibWave heightAir tempDewpointWater temp
2016-Jun-26 09:32N 34°41' E 135°18'4 4.2
2016-Jun-26 08:33N 34°38' E 135°14'1 0.5
2016-Jun-26 07:30N 34°38' E 135°15'  
2016-Jun-18 10:14N 34°42' E 135°20'4 5.5
2016-Jun-18 09:30N 34°39' E 135°17'5 4.4
2016-Jun-18 08:16N 34°35' E 135°13'4 2.0
2016-Jun-18 06:28N 34°32' E 135°10'2 1.8
2016-Jun-18 05:32N 34°34' E 135°09'1 1.3
2016-Jun-18 04:29N 34°35' E 135°11'5 5.1
2016-Jun-18 03:33N 34°38' E 135°15'  
Track history (hours):
 
Tides and Currents Weather Stations Pressure Air Temp Water Temp Dewpoint Dewpoint Depression Visibility Wind Speed Wind Dir Waves Ship Positions

Busy Bee

Last reported at 2016-Jun-26 09:32 UTC. Time now 2016-Jun-28 09:44 UTC.
Position N 34°41' E 135°18'.

Length 15 m.

Type: Sailing vessel. MMSI: 431002814.

Date/timePositionNaut miles runAvg speedWind from/ knotsBaromVisibWave heightAir tempDewpointWater temp
2016-Jun-26 09:32N 34°41' E 135°18'4 4.2
2016-Jun-26 08:33N 34°38' E 135°14'1 0.5
2016-Jun-26 07:30N 34°38' E 135°15'  
2016-Jun-18 10:14N 34°42' E 135°20'4 5.5
2016-Jun-18 09:30N 34°39' E 135°17'5 4.4
2016-Jun-18 08:16N 34°35' E 135°13'4 2.0
2016-Jun-18 06:28N 34°32' E 135°10'2 1.8
2016-Jun-18 05:32N 34°34' E 135°09'1 1.3
2016-Jun-18 04:29N 34°35' E 135°11'5 5.1
2016-Jun-18 03:33N 34°38' E 135°15'  

Dump ship's entire track history